Time;durP1;ratioP1;P1;durP2;ratioP2;P2;SDS_P1;SDS_P2;PMS_P1;PMS_P2;Temp;Humidity;BMP_temperature;BMP_pressure;BME280_temperature;BME280_humidity;BME280_pressure;Samples;Min_cycle;Max_cycle;Signal;HPM_P1;HPM_P2
2022/06/08 00:00:24;;;;;;;4.35;1.73;;;15.40;83.30;;;;;;5031389;28;20052;-82
2022/06/08 00:03:00;;;;;;;2.75;1.60;;;15.30;83.30;;;;;;5030060;28;20430;-82
2022/06/08 00:05:28;;;;;;;3.75;1.90;;;15.30;83.40;;;;;;5031823;28;20045;-82
2022/06/08 00:07:55;;;;;;;5.68;1.88;;;15.30;83.40;;;;;;5031116;28;20038;-83
2022/06/08 00:10:23;;;;;;;5.85;1.90;;;15.30;83.50;;;;;;5030377;28;20049;-82
2022/06/08 00:12:51;;;;;;;3.25;1.95;;;15.20;83.60;;;;;;5031170;28;20058;-82
2022/06/08 00:15:19;;;;;;;2.50;1.63;;;15.20;83.70;;;;;;5027113;28;20052;-82
2022/06/08 00:17:47;;;;;;;3.35;2.00;;;15.10;83.80;;;;;;5031253;28;20050;-82
2022/06/08 00:20:15;;;;;;;5.55;1.70;;;15.00;84.00;;;;;;5033412;28;20042;-82
2022/06/08 00:22:43;;;;;;;4.10;2.22;;;15.00;84.10;;;;;;5030087;28;20085;-82
2022/06/08 00:25:12;;;;;;;3.53;1.77;;;15.00;84.20;;;;;;5033968;28;20057;-83
2022/06/08 00:27:40;;;;;;;3.22;2.05;;;14.90;84.40;;;;;;5032091;28;20057;-82
2022/06/08 00:30:09;;;;;;;5.28;2.00;;;14.80;84.60;;;;;;5038531;28;20046;-81
2022/06/08 00:32:39;;;;;;;2.88;2.10;;;14.80;84.80;;;;;;5030354;28;20054;-85
2022/06/08 00:35:09;;;;;;;7.22;2.40;;;14.80;84.90;;;;;;5028908;28;20053;-87
2022/06/08 00:37:38;;;;;;;5.03;2.30;;;14.80;85.00;;;;;;5034525;28;20050;-87
2022/06/08 00:40:08;;;;;;;3.42;2.10;;;14.70;85.10;;;;;;5032780;28;20046;-87
2022/06/08 00:42:36;;;;;;;4.43;2.30;;;14.70;85.30;;;;;;5032771;28;20058;-86
2022/06/08 00:45:07;;;;;;;6.00;2.38;;;14.60;85.40;;;;;;5037804;28;20532;-87
2022/06/08 00:47:42;;;;;;;4.57;2.38;;;14.60;85.70;;;;;;5034326;28;20061;-88
2022/06/08 00:50:22;;;;;;;;;;;14.50;85.80;;;;;;5034507;28;20060;-89
2022/06/08 00:52:51;;;;;;;6.63;2.25;;;14.50;85.90;;;;;;5033719;28;19932;-87
2022/06/08 00:55:22;;;;;;;3.63;2.08;;;14.50;85.90;;;;;;5037887;28;20045;-89
2022/06/08 00:57:54;;;;;;;3.85;2.20;;;14.40;86.00;;;;;;5035992;28;20053;-87
2022/06/08 01:00:30;;;;;;;2.72;2.25;;;14.40;86.20;;;;;;5034609;28;20053;-88
2022/06/08 01:02:59;;;;;;;5.45;2.38;;;14.40;86.20;;;;;;5039986;28;20038;-88
2022/06/08 01:05:46;;;;;;;5.32;2.40;;;14.40;86.40;;;;;;5021644;28;20072;-84
2022/06/08 01:08:43;;;;;;;5.60;2.60;;;14.30;86.50;;;;;;5031242;28;20046;-81
2022/06/08 01:11:20;;;;;;;5.22;2.70;;;14.30;86.50;;;;;;5029893;28;20410;-79
2022/06/08 01:13:48;;;;;;;4.15;2.70;;;14.30;86.60;;;;;;5031871;28;20054;-83
2022/06/08 01:16:18;;;;;;;4.90;2.97;;;14.30;86.70;;;;;;5032244;28;20045;-83
2022/06/08 01:18:47;;;;;;;8.48;3.00;;;14.30;86.90;;;;;;5033396;28;20041;-84
2022/06/08 01:21:21;;;;;;;6.65;3.10;;;14.30;87.00;;;;;;5032586;28;20037;-83
2022/06/08 01:24:01;;;;;;;5.45;3.00;;;14.30;87.10;;;;;;5013457;28;20061;-83
2022/06/08 01:26:56;;;;;;;5.25;3.17;;;14.30;87.10;;;;;;5033634;28;20040;-85
2022/06/08 01:29:36;;;;;;;5.72;3.00;;;14.30;87.20;;;;;;5029438;28;20041;-84
2022/06/08 01:32:39;;;;;;;6.80;2.83;;;14.30;87.20;;;;;;5033870;28;20045;-85
2022/06/08 01:35:32;;;;;;;5.97;3.00;;;14.30;87.20;;;;;;5037754;28;20390;-85
2022/06/08 01:38:18;;;;;;;4.07;3.00;;;14.30;87.20;;;;;;5032886;28;20060;-87
2022/06/08 01:41:25;;;;;;;6.20;2.92;;;14.30;87.20;;;;;;5028285;28;20045;-86
2022/06/08 01:44:24;;;;;;;6.18;3.30;;;14.30;87.20;;;;;;5036822;28;20053;-85
2022/06/08 01:47:07;;;;;;;7.03;3.10;;;14.30;87.20;;;;;;5027713;28;20045;-84
2022/06/08 01:49:45;;;;;;;3.63;3.08;;;14.30;87.20;;;;;;5028507;28;20045;-85
2022/06/08 01:52:22;;;;;;;4.35;2.63;;;14.30;87.20;;;;;;5032270;28;20046;-85
2022/06/08 01:55:09;;;;;;;5.57;2.90;;;14.30;87.30;;;;;;5046094;28;20044;-84
2022/06/08 01:57:56;;;;;;;5.63;3.17;;;14.30;87.40;;;;;;5030892;28;20034;-82
2022/06/08 02:00:53;;;;;;;3.90;3.00;;;14.30;87.40;;;;;;5034498;28;20048;-82
2022/06/08 02:03:31;;;;;;;4.63;3.20;;;14.30;87.50;;;;;;5030952;28;20502;-84
2022/06/08 02:06:07;;;;;;;6.25;3.50;;;14.30;87.60;;;;;;5021848;28;20045;-84
2022/06/08 02:09:04;;;;;;;5.22;3.38;;;14.20;87.60;;;;;;5030427;28;20037;-83
2022/06/08 02:11:35;;;;;;;4.22;3.00;;;14.20;87.70;;;;;;5032967;28;20524;-83
2022/06/08 02:14:25;;;;;;;3.88;3.20;;;14.20;87.70;;;;;;5030697;28;20049;-84
2022/06/08 02:17:00;;;;;;;4.13;3.42;;;14.20;87.80;;;;;;5030740;28;20060;-83
2022/06/08 02:19:43;;;;;;;4.85;3.20;;;14.30;87.80;;;;;;5040796;28;20489;-85
2022/06/08 02:22:15;;;;;;;4.75;3.00;;;14.30;87.80;;;;;;5029512;28;20068;-85
2022/06/08 02:25:06;;;;;;;3.55;3.13;;;14.30;87.80;;;;;;5025150;28;20046;-86
2022/06/08 02:27:44;;;;;;;4.00;3.25;;;14.20;87.80;;;;;;5039873;28;20038;-87
2022/06/08 02:30:17;;;;;;;6.28;3.60;;;14.20;87.90;;;;;;5032119;28;20053;-87
2022/06/08 02:36:14;;;;;;;7.65;3.50;;;14.20;87.90;;;;;;5065617;28;20371;-88
2022/06/08 02:38:50;;;;;;;9.93;3.67;;;14.20;87.90;;;;;;5032749;28;20427;-89
2022/06/08 02:41:21;;;;;;;5.75;3.20;;;14.20;87.90;;;;;;5034721;28;20037;-88
2022/06/08 02:43:54;;;;;;;5.32;3.40;;;14.30;87.90;;;;;;5037394;28;20045;-88
2022/06/08 02:46:46;;;;;;;5.45;3.53;;;14.30;87.90;;;;;;5030625;28;20037;-89
2022/06/08 02:49:18;;;;;;;6.05;3.08;;;14.20;87.90;;;;;;5037631;28;20052;-90
2022/06/08 02:51:50;;;;;;;6.15;3.20;;;14.30;87.90;;;;;;5038659;28;20488;-88
2022/06/08 02:54:23;;;;;;;5.32;3.53;;;14.30;87.90;;;;;;5035873;28;20506;-88
2022/06/08 02:57:04;;;;;;;5.80;3.00;;;14.30;87.90;;;;;;5037412;28;20046;-89
2022/06/08 02:59:57;;;;;;;6.60;3.20;;;14.30;87.80;;;;;;5034859;28;20049;-88
2022/06/08 03:02:32;;;;;;;4.63;2.53;;;14.30;87.90;;;;;;5043688;28;20478;-88
2022/06/08 03:05:17;;;;;;;4.13;2.72;;;14.30;87.90;;;;;;5048015;28;20049;-89
2022/06/08 03:08:01;;;;;;;3.58;2.38;;;14.30;87.90;;;;;;5041043;28;20041;-89
2022/06/08 03:10:33;;;;;;;11.25;2.60;;;14.30;87.90;;;;;;5002840;28;20120;-89
2022/06/08 03:13:11;;;;;;;3.30;2.53;;;14.20;87.90;;;;;;5014792;28;20057;-90
2022/06/08 03:15:41;;;;;;;5.97;3.00;;;14.30;87.90;;;;;;5029794;28;20057;-88
2022/06/08 03:18:09;;;;;;;3.55;2.60;;;14.30;87.90;;;;;;5043838;28;20117;-90
2022/06/08 03:20:36;;;;;;;3.28;2.97;;;14.30;88.00;;;;;;5030766;28;20041;-90
2022/06/08 03:23:05;;;;;;;4.15;2.70;;;14.20;88.00;;;;;;5032977;28;20045;-90
2022/06/08 03:25:36;;;;;;;3.55;2.63;;;14.20;88.00;;;;;;5031720;28;20060;-89
2022/06/08 03:28:04;;;;;;;6.45;3.30;;;14.30;88.00;;;;;;5032694;28;20052;-90
2022/06/08 03:30:32;;;;;;;6.70;2.78;;;14.30;88.00;;;;;;5034237;28;20045;-89
2022/06/08 03:33:02;;;;;;;5.63;2.50;;;14.30;88.00;;;;;;5030649;28;20042;-90
2022/06/08 03:35:30;;;;;;;5.30;3.20;;;14.30;88.00;;;;;;5022119;28;20056;-90
2022/06/08 03:37:59;;;;;;;5.43;3.10;;;14.30;88.00;;;;;;5036259;28;20429;-91
2022/06/08 03:40:29;;;;;;;3.22;3.03;;;14.30;88.10;;;;;;5050718;28;20049;-91
2022/06/08 03:42:56;;;;;;;6.07;3.10;;;14.30;88.10;;;;;;5033730;28;20045;-91
2022/06/08 03:45:28;;;;;;;2.90;2.67;;;14.30;88.10;;;;;;5035409;28;20045;-92
2022/06/08 03:47:56;;;;;;;3.50;2.65;;;14.30;88.10;;;;;;5033352;28;20041;-91
2022/06/08 03:50:29;;;;;;;3.22;2.70;;;14.30;88.10;;;;;;5032658;28;20041;-92
2022/06/08 03:53:08;;;;;;;3.83;2.65;;;14.30;88.10;;;;;;5029997;28;20042;-90
2022/06/08 03:55:36;;;;;;;3.58;2.60;;;14.30;88.10;;;;;;5025812;28;20038;-91
2022/06/08 03:58:05;;;;;;;2.80;2.60;;;14.30;88.20;;;;;;5030930;28;20052;-93
2022/06/08 04:00:37;;;;;;;2.55;2.35;;;14.30;88.20;;;;;;5066506;28;20041;-91
2022/06/08 04:03:11;;;;;;;4.30;2.70;;;14.30;88.20;;;;;;5031889;28;20064;-91
2022/06/08 04:05:39;;;;;;;2.97;2.50;;;14.30;88.20;;;;;;5020474;28;20053;-91
2022/06/08 04:08:15;;;;;;;6.95;2.65;;;14.30;88.30;;;;;;5046825;28;20495;-90
2022/06/08 04:10:48;;;;;;;4.68;2.85;;;14.30;88.30;;;;;;5034736;28;20057;-89
2022/06/08 04:13:19;;;;;;;8.73;2.88;;;14.30;88.30;;;;;;5034444;28;20037;-91
2022/06/08 04:15:50;;;;;;;2.97;2.75;;;14.30;88.30;;;;;;5029733;28;20044;-90
2022/06/08 04:18:41;;;;;;;3.17;2.88;;;14.30;88.30;;;;;;5031859;28;20041;-86
2022/06/08 04:21:11;;;;;;;3.83;3.10;;;14.30;88.40;;;;;;5030566;28;20053;-91
2022/06/08 04:23:51;;;;;;;5.35;3.05;;;14.30;88.40;;;;;;5065122;28;20041;-88
2022/06/08 04:26:21;;;;;;;5.65;2.97;;;14.30;88.40;;;;;;5035334;28;20050;-87
2022/06/08 04:28:53;;;;;;;4.60;3.20;;;14.30;88.50;;;;;;5051729;28;20041;-92
2022/06/08 04:31:21;;;;;;;4.07;2.63;;;14.30;88.50;;;;;;5039309;28;20299;-90
2022/06/08 04:33:54;;;;;;;3.03;2.80;;;14.30;88.50;;;;;;5033783;28;20060;-92
2022/06/08 04:36:28;;;;;;;2.50;2.30;;;14.30;88.60;;;;;;5034243;28;20038;-87
2022/06/08 04:38:56;;;;;;;3.78;2.78;;;14.30;88.60;;;;;;5034121;28;20041;-90
2022/06/08 04:41:26;;;;;;;3.28;2.80;;;14.30;88.60;;;;;;5035070;28;20049;-90
2022/06/08 04:43:56;;;;;;;5.18;2.60;;;14.30;88.60;;;;;;5023897;28;20046;-92
2022/06/08 04:46:25;;;;;;;5.80;4.13;;;14.30;88.60;;;;;;5037616;28;20433;-92
2022/06/08 04:48:56;;;;;;;3.28;2.97;;;14.30;88.60;;;;;;5039432;28;20052;-91
2022/06/08 04:51:27;;;;;;;6.35;5.72;;;14.30;88.60;;;;;;5039153;28;20041;-91
2022/06/08 04:53:58;;;;;;;7.05;6.35;;;14.40;88.60;;;;;;5041976;28;20060;-90
2022/06/08 04:56:27;;;;;;;5.40;3.10;;;14.40;88.60;;;;;;5035043;28;20513;-91
2022/06/08 04:58:57;;;;;;;4.97;2.53;;;14.40;88.60;;;;;;5020792;28;20375;-90
2022/06/08 05:01:30;;;;;;;2.47;2.28;;;14.50;88.60;;;;;;5052443;28;20057;-91
2022/06/08 05:03:59;;;;;;;2.45;2.20;;;14.50;88.60;;;;;;5037663;28;20045;-91
2022/06/08 05:06:27;;;;;;;2.67;2.47;;;14.50;88.50;;;;;;5026020;28;20049;-93
2022/06/08 05:08:55;;;;;;;2.05;1.75;;;14.50;88.50;;;;;;5033521;28;20045;-89
2022/06/08 05:11:25;;;;;;;3.55;1.70;;;14.60;88.40;;;;;;5035116;28;20045;-89
2022/06/08 05:13:54;;;;;;;5.88;3.15;;;14.60;88.40;;;;;;5017777;28;20046;-89
2022/06/08 05:16:23;;;;;;;3.60;1.90;;;14.60;88.30;;;;;;5033506;28;20037;-90
2022/06/08 05:18:55;;;;;;;2.17;1.73;;;14.60;88.30;;;;;;5019674;28;20470;-90
2022/06/08 05:21:23;;;;;;;2.58;1.60;;;14.60;88.20;;;;;;5033493;28;20399;-88
2022/06/08 05:23:53;;;;;;;1.55;1.30;;;14.70;88.00;;;;;;5033099;28;20053;-89
2022/06/08 05:26:31;;;;;;;3.47;1.50;;;14.70;87.90;;;;;;5024430;28;20042;-88
2022/06/08 05:28:59;;;;;;;3.35;1.20;;;14.70;87.80;;;;;;5032925;28;20041;-89
2022/06/08 05:31:31;;;;;;;4.00;1.48;;;14.60;87.70;;;;;;5036458;28;20045;-87
2022/06/08 05:34:04;;;;;;;1.67;1.25;;;14.60;87.40;;;;;;5038499;28;20052;-87
2022/06/08 05:36:33;;;;;;;2.50;1.20;;;14.60;87.10;;;;;;5029979;28;20042;-87
2022/06/08 05:39:06;;;;;;;2.17;1.00;;;14.60;87.20;;;;;;5032859;28;20060;-88
2022/06/08 05:41:39;;;;;;;4.00;1.20;;;14.60;87.20;;;;;;5032728;28;20048;-87
2022/06/08 05:44:09;;;;;;;1.92;1.00;;;14.60;87.20;;;;;;5062882;28;20038;-87
2022/06/08 05:46:37;;;;;;;1.60;0.90;;;14.70;87.20;;;;;;5040439;28;20037;-88
2022/06/08 05:49:09;;;;;;;4.30;1.10;;;14.70;86.90;;;;;;5033848;28;20045;-88
2022/06/08 05:51:41;;;;;;;1.65;0.50;;;14.70;86.70;;;;;;5030304;28;20056;-90
2022/06/08 05:54:11;;;;;;;2.95;0.80;;;14.70;86.00;;;;;;5034642;28;20058;-88
2022/06/08 05:56:40;;;;;;;3.10;0.80;;;14.80;85.70;;;;;;5025296;28;20065;-88
2022/06/08 05:59:10;;;;;;;2.25;0.80;;;14.80;85.70;;;;;;5033688;28;20041;-87
2022/06/08 06:01:41;;;;;;;2.28;0.60;;;14.80;85.60;;;;;;5069949;28;20049;-87
2022/06/08 06:04:09;;;;;;;4.15;0.60;;;14.80;85.20;;;;;;5030048;28;20045;-84
2022/06/08 06:06:43;;;;;;;2.47;0.70;;;14.80;85.10;;;;;;5030904;28;20045;-85
2022/06/08 06:09:13;;;;;;;2.38;0.55;;;14.90;85.10;;;;;;5031303;28;20044;-85
2022/06/08 06:11:41;;;;;;;3.38;0.70;;;15.00;85.10;;;;;;5028274;28;20438;-85
2022/06/08 06:14:10;;;;;;;2.08;0.45;;;15.00;85.00;;;;;;5029867;28;20072;-84
2022/06/08 06:16:42;;;;;;;5.57;0.68;;;15.10;84.80;;;;;;5029244;28;20041;-86
2022/06/08 06:19:12;;;;;;;1.90;0.55;;;15.20;84.70;;;;;;5029413;28;20041;-85
2022/06/08 06:21:52;;;;;;;2.08;0.40;;;15.20;84.40;;;;;;5032545;28;20053;-85
2022/06/08 06:24:27;;;;;;;2.28;0.60;;;15.20;84.20;;;;;;5014606;28;20053;-84
2022/06/08 06:27:21;;;;;;;2.90;0.60;;;15.30;83.80;;;;;;5031852;28;20403;-84
2022/06/08 06:30:15;;;;;;;5.57;0.65;;;15.30;83.80;;;;;;5041057;28;20059;-80
2022/06/08 06:32:55;;;;;;;1.35;0.50;;;15.40;83.20;;;;;;5049334;28;20045;-80
2022/06/08 06:35:27;;;;;;;3.72;0.57;;;15.30;82.60;;;;;;5034430;28;20486;-78
2022/06/08 06:38:05;;;;;;;3.67;0.77;;;15.30;82.30;;;;;;5039964;28;20506;-78
2022/06/08 06:40:36;;;;;;;2.15;0.35;;;15.30;82.30;;;;;;5037642;28;20045;-78
2022/06/08 06:43:05;;;;;;;2.15;0.45;;;15.30;82.30;;;;;;5012598;28;20491;-78
2022/06/08 06:45:40;;;;;;;0.60;0.35;;;15.40;82.20;;;;;;5029561;28;20045;-78
2022/06/08 06:48:26;;;;;;;4.60;0.52;;;15.40;81.90;;;;;;5027817;28;20045;-78
2022/06/08 06:50:59;;;;;;;;;;;15.50;81.90;;;;;;5036872;28;20482;-77
2022/06/08 06:53:27;;;;;;;2.65;0.40;;;15.50;81.80;;;;;;5028314;28;19936;-78
2022/06/08 06:55:56;;;;;;;1.55;0.30;;;15.50;81.50;;;;;;5030921;28;20053;-75
2022/06/08 06:58:48;;;;;;;3.35;0.77;;;15.60;81.40;;;;;;5029706;28;20537;-77
2022/06/08 07:01:17;;;;;;;2.28;0.63;;;15.70;81.20;;;;;;5046557;28;20057;-76
2022/06/08 07:03:46;;;;;;;2.10;0.32;;;15.70;80.60;;;;;;5024920;28;20511;-77
2022/06/08 07:06:13;;;;;;;2.08;0.30;;;15.60;80.20;;;;;;5010465;28;20050;-76
2022/06/08 07:08:41;;;;;;;1.38;0.25;;;15.60;80.10;;;;;;5021710;28;20048;-76
2022/06/08 07:14:02;;;;;;;2.17;0.32;;;15.60;80.10;;;;;;5030963;28;20029;-77
2022/06/08 07:16:31;;;;;;;1.25;0.20;;;15.60;80.10;;;;;;5063001;28;20045;-78
2022/06/08 07:19:00;;;;;;;1.60;0.30;;;15.60;80.30;;;;;;5025060;28;20042;-77
2022/06/08 07:21:29;;;;;;;2.05;0.47;;;15.60;80.00;;;;;;5031103;28;20049;-77
2022/06/08 07:23:57;;;;;;;2.38;0.47;;;15.70;80.30;;;;;;5031609;28;20060;-77
2022/06/08 07:26:25;;;;;;;4.43;0.35;;;15.70;80.30;;;;;;5032200;28;20406;-77
2022/06/08 07:28:52;;;;;;;2.10;0.80;;;15.60;80.20;;;;;;5030837;28;20141;-77
2022/06/08 07:31:21;;;;;;;1.70;0.85;;;15.60;80.50;;;;;;5014482;28;20430;-77
2022/06/08 07:33:49;;;;;;;3.45;0.70;;;15.60;80.90;;;;;;5032123;28;20060;-77
2022/06/08 07:36:17;;;;;;;6.03;0.50;;;15.60;81.00;;;;;;5032149;28;20057;-77
2022/06/08 07:38:45;;;;;;;1.85;0.30;;;15.70;80.90;;;;;;5031071;28;20053;-77
2022/06/08 07:41:14;;;;;;;1.20;0.40;;;15.80;80.80;;;;;;5032087;28;20049;-76
2022/06/08 07:43:42;;;;;;;1.92;0.40;;;16.00;80.30;;;;;;5030657;28;20052;-77
2022/06/08 07:46:10;;;;;;;1.70;0.40;;;16.10;80.10;;;;;;5031545;28;20056;-76
2022/06/08 07:51:24;;;;;;;0.52;0.40;;;16.30;78.70;;;;;;5030482;28;20383;-76
2022/06/08 07:53:51;;;;;;;1.05;0.32;;;16.40;78.10;;;;;;5031571;28;20037;-77
2022/06/08 07:56:19;;;;;;;1.73;0.35;;;16.40;78.10;;;;;;5028386;28;20052;-77
2022/06/08 07:58:48;;;;;;;1.75;0.30;;;16.50;78.00;;;;;;5035205;28;20510;-77
2022/06/08 08:01:17;;;;;;;1.10;0.30;;;16.60;77.70;;;;;;5034751;28;20050;-78
2022/06/08 08:03:44;;;;;;;3.58;0.30;;;16.60;76.60;;;;;;5036021;28;20045;-78
2022/06/08 08:06:12;;;;;;;0.80;0.20;;;16.60;75.80;;;;;;5034978;28;20056;-78
2022/06/08 08:08:39;;;;;;;3.10;0.25;;;16.50;76.20;;;;;;5034333;28;20052;-78
2022/06/08 08:11:07;;;;;;;1.63;0.30;;;16.60;76.40;;;;;;5034414;28;20049;-78
2022/06/08 08:13:36;;;;;;;3.05;0.50;;;16.60;76.10;;;;;;5035784;28;20049;-78
2022/06/08 08:16:05;;;;;;;1.15;0.30;;;16.70;75.60;;;;;;5034916;28;20061;-78
2022/06/08 08:18:32;;;;;;;3.13;0.32;;;16.60;75.80;;;;;;5035354;28;20045;-78
2022/06/08 08:21:00;;;;;;;2.28;0.68;;;16.70;75.70;;;;;;5035040;28;20053;-77
2022/06/08 08:23:28;;;;;;;3.95;0.52;;;16.80;76.10;;;;;;5033647;28;20072;-77
2022/06/08 08:25:56;;;;;;;2.22;0.73;;;16.90;75.90;;;;;;5034920;28;20447;-78
2022/06/08 08:28:24;;;;;;;1.65;0.30;;;17.00;74.90;;;;;;5035593;28;20045;-78
2022/06/08 08:30:51;;;;;;;3.88;0.60;;;17.10;74.90;;;;;;5039157;28;20482;-77
2022/06/08 08:33:27;;;;;;;2.33;0.30;;;17.10;74.90;;;;;;5038990;28;20394;-78
2022/06/08 08:35:54;;;;;;;3.72;0.40;;;17.20;74.40;;;;;;5034793;28;20041;-77
2022/06/08 08:38:22;;;;;;;5.45;0.25;;;17.20;73.70;;;;;;5035581;28;20371;-77
2022/06/08 08:40:55;;;;;;;2.13;0.40;;;17.30;74.30;;;;;;5033645;28;20052;-78
2022/06/08 08:43:26;;;;;;;1.35;0.30;;;17.30;73.90;;;;;;5035074;28;20060;-78
2022/06/08 08:46:29;;;;;;;3.33;0.60;;;17.20;74.10;;;;;;5034924;28;20395;-78
2022/06/08 08:49:06;;;;;;;1.25;0.38;;;17.30;74.20;;;;;;5027309;28;20056;-77
2022/06/08 08:51:39;;;;;;;1.75;0.45;;;17.30;74.00;;;;;;5034363;28;20123;-77
2022/06/08 08:54:26;;;;;;;1.98;0.32;;;17.30;73.20;;;;;;5034341;28;20046;-79
2022/06/08 08:57:10;;;;;;;1.52;0.30;;;17.30;73.80;;;;;;5034804;28;20045;-77
2022/06/08 08:59:44;;;;;;;2.45;0.30;;;17.20;74.00;;;;;;5033745;28;20414;-77
2022/06/08 09:03:14;;;;;;;2.28;0.40;;;17.10;73.90;;;;;;5034698;28;20518;-78
2022/06/08 09:05:15;;;;;;;0.75;0.20;;;17.10;74.20;;;;;;5034037;28;20041;-78
2022/06/08 09:07:43;;;;;;;2.38;0.70;;;17.00;74.70;;;;;;5034620;28;20053;-77
2022/06/08 09:10:23;;;;;;;0.63;0.20;;;17.10;74.40;;;;;;5033405;28;20390;-78
2022/06/08 09:12:52;;;;;;;1.55;0.40;;;17.10;73.70;;;;;;5034338;28;20046;-77
2022/06/08 09:15:41;;;;;;;1.98;0.40;;;17.10;74.00;;;;;;5032784;28;20056;-78
2022/06/08 09:18:39;;;;;;;1.60;0.32;;;17.30;73.60;;;;;;5034551;28;20056;-77
2022/06/08 09:21:34;;;;;;;1.70;0.47;;;17.40;73.50;;;;;;5034252;28;20050;-77
2022/06/08 09:24:09;;;;;;;1.80;0.43;;;17.70;73.70;;;;;;5013434;28;20543;-77
2022/06/08 09:26:40;;;;;;;2.08;0.40;;;17.80;72.40;;;;;;5024252;28;20053;-77
2022/06/08 09:29:16;;;;;;;1.95;0.57;;;17.80;72.90;;;;;;5033965;28;20048;-78
2022/06/08 09:31:46;;;;;;;1.30;0.32;;;17.80;72.50;;;;;;5032742;28;20056;-77
2022/06/08 09:34:30;;;;;;;2.35;0.40;;;17.80;72.20;;;;;;5034089;28;20056;-76
2022/06/08 09:37:12;;;;;;;3.08;0.32;;;17.80;72.10;;;;;;5032869;28;20056;-76
2022/06/08 09:39:44;;;;;;;4.22;0.68;;;17.80;72.20;;;;;;5033979;28;20053;-77
2022/06/08 09:42:52;;;;;;;2.57;0.30;;;17.80;71.80;;;;;;5032170;28;20052;-77
2022/06/08 09:45:26;;;;;;;3.67;0.80;;;17.80;72.10;;;;;;5030751;28;20283;-78
2022/06/08 09:51:25;;;;;;;2.88;0.40;;;17.60;71.20;;;;;;5033825;28;20050;-78
2022/06/08 09:54:18;;;;;;;5.00;0.60;;;17.30;72.30;;;;;;5039664;28;20061;-74
2022/06/08 09:57:21;;;;;;;3.30;0.70;;;16.80;76.50;;;;;;5036800;28;20053;-72
2022/06/08 09:59:48;;;;;;;9.63;0.80;;;15.70;79.70;;;;;;5022094;28;20068;-73
2022/06/08 10:02:51;;;;;;;2.70;0.60;;;15.30;81.80;;;;;;5033681;28;20080;-73
2022/06/08 10:05:34;;;;;;;6.07;1.00;;;14.90;83.10;;;;;;5011330;28;20149;-74
2022/06/08 10:08:10;;;;;;;2.65;0.70;;;15.00;84.20;;;;;;5011410;28;20511;-75
2022/06/08 10:10:46;;;;;;;5.82;0.77;;;15.30;85.00;;;;;;5009772;28;20507;-76
2022/06/08 10:13:26;;;;;;;1.65;0.60;;;15.70;84.40;;;;;;5028356;28;20072;-76
2022/06/08 10:16:04;;;;;;;3.45;0.70;;;16.20;84.00;;;;;;5030875;28;20061;-76
2022/06/08 10:19:00;;;;;;;6.35;0.70;;;16.30;83.30;;;;;;5030091;28;20053;-76
2022/06/08 10:21:33;;;;;;;1.30;0.30;;;16.50;82.80;;;;;;5031081;28;20064;-76
2022/06/08 10:24:04;;;;;;;2.72;0.50;;;16.40;82.10;;;;;;5030893;28;20057;-75
2022/06/08 10:26:37;;;;;;;1.25;0.38;;;16.20;81.50;;;;;;5030819;28;20041;-77
2022/06/08 10:29:13;;;;;;;3.22;0.50;;;16.10;81.50;;;;;;5012068;28;20066;-76
2022/06/08 10:31:47;;;;;;;3.72;0.60;;;16.20;82.30;;;;;;5026451;28;20053;-76
2022/06/08 10:34:25;;;;;;;1.08;0.40;;;16.30;82.00;;;;;;5027827;28;20053;-76
2022/06/08 10:36:58;;;;;;;0.98;0.40;;;16.40;80.40;;;;;;4994481;28;20056;-76
2022/06/08 10:39:27;;;;;;;1.67;0.35;;;16.40;76.20;;;;;;5015117;28;20192;-77
2022/06/08 10:45:35;;;;;;;2.78;0.50;;;16.30;74.70;;;;;;5032776;28;20459;-79
2022/06/08 10:48:15;;;;;;;1.92;0.63;;;16.30;74.00;;;;;;5032335;28;20053;-78
2022/06/08 10:50:48;;;;;;;5.03;0.70;;;16.60;73.60;;;;;;5031526;28;20042;-79
2022/06/08 10:56:28;;;;;;;3.50;0.40;;;17.50;72.30;;;;;;5032698;28;20049;-79
2022/06/08 10:59:21;;;;;;;2.08;0.85;;;17.90;70.80;;;;;;5032768;28;20498;-80
2022/06/08 11:02:10;;;;;;;2.08;0.28;;;18.00;70.20;;;;;;5032124;28;20056;-79
2022/06/08 11:04:55;;;;;;;4.95;0.35;;;18.00;69.10;;;;;;5032668;28;20045;-79
2022/06/08 11:07:23;;;;;;;4.20;0.88;;;17.90;67.70;;;;;;5032756;28;20057;-80
2022/06/08 11:09:53;;;;;;;4.28;0.50;;;17.70;67.70;;;;;;5032440;28;20049;-81
2022/06/08 11:12:33;;;;;;;2.42;0.70;;;17.60;67.60;;;;;;5032477;28;20053;-80
2022/06/08 11:15:18;;;;;;;3.95;0.52;;;17.60;67.90;;;;;;5032512;28;20053;-80
2022/06/08 11:17:58;;;;;;;3.13;0.55;;;17.80;67.60;;;;;;5033078;28;20060;-81
2022/06/08 11:20:36;;;;;;;2.35;0.50;;;18.00;66.70;;;;;;5032586;28;20402;-80
2022/06/08 11:23:30;;;;;;;3.92;0.90;;;17.90;66.00;;;;;;5031563;28;20053;-80
2022/06/08 11:26:07;;;;;;;2.38;0.40;;;17.80;67.40;;;;;;5012886;28;20046;-80
2022/06/08 11:28:45;;;;;;;6.18;0.40;;;17.80;67.20;;;;;;5029884;28;20063;-81
2022/06/08 11:31:28;;;;;;;4.45;0.50;;;17.60;66.30;;;;;;5052048;28;20045;-81
2022/06/08 11:34:20;;;;;;;6.18;0.68;;;17.30;66.50;;;;;;5051991;28;20059;-81
2022/06/08 11:37:13;;;;;;;2.67;0.65;;;17.10;68.20;;;;;;5033952;28;20490;-76
2022/06/08 11:40:00;;;;;;;4.00;0.60;;;17.00;69.20;;;;;;5041806;28;20046;-79
2022/06/08 11:42:47;;;;;;;7.57;1.13;;;17.30;70.00;;;;;;5048832;28;20116;-78
2022/06/08 11:45:20;;;;;;;2.38;0.60;;;17.40;70.00;;;;;;5039247;28;20050;-77
2022/06/08 11:48:22;;;;;;;3.97;0.52;;;17.80;71.10;;;;;;5031410;28;20049;-79
2022/06/08 11:50:58;;;;;;;1.55;0.45;;;18.30;68.60;;;;;;5047800;28;20045;-76
2022/06/08 11:53:28;;;;;;;4.20;0.85;;;18.30;67.20;;;;;;5047117;28;20521;-76
2022/06/08 11:56:12;;;;;;;1.63;0.50;;;18.10;68.10;;;;;;5032073;28;20044;-77
2022/06/08 11:58:50;;;;;;;3.42;0.50;;;18.00;68.20;;;;;;5033853;28;20490;-77
2022/06/08 12:01:22;;;;;;;2.42;0.70;;;17.90;68.70;;;;;;5032376;28;20061;-75
2022/06/08 12:04:14;;;;;;;2.95;0.32;;;17.90;69.20;;;;;;5031688;28;20065;-77
2022/06/08 12:06:44;;;;;;;4.07;0.80;;;18.20;68.10;;;;;;5031462;28;20650;-77
2022/06/08 12:09:20;;;;;;;1.88;0.60;;;18.30;66.90;;;;;;5030537;28;20058;-78
2022/06/08 12:12:11;;;;;;;2.17;0.63;;;18.30;67.10;;;;;;5031748;28;20231;-77
2022/06/08 12:14:40;;;;;;;1.50;0.47;;;18.20;65.80;;;;;;5031809;28;20053;-77
2022/06/08 12:17:17;;;;;;;1.95;0.50;;;17.80;66.10;;;;;;5029872;28;20049;-77
2022/06/08 12:19:48;;;;;;;2.63;0.60;;;17.50;67.10;;;;;;5031905;28;20049;-76
2022/06/08 12:22:27;;;;;;;3.63;0.65;;;17.40;68.00;;;;;;5030417;28;20414;-77
2022/06/08 12:25:23;;;;;;;2.67;0.60;;;17.30;68.60;;;;;;5032089;28;20061;-76
2022/06/08 12:28:03;;;;;;;3.15;0.50;;;17.30;69.20;;;;;;5030419;28;20056;-77
2022/06/08 12:30:34;;;;;;;2.63;0.77;;;17.30;68.90;;;;;;5031868;28;20054;-77
2022/06/08 12:33:25;;;;;;;4.60;0.88;;;17.30;68.10;;;;;;5030801;28;20072;-77
2022/06/08 12:35:53;;;;;;;3.88;0.75;;;17.20;68.80;;;;;;5033527;28;20056;-77
2022/06/08 12:38:22;;;;;;;2.20;0.50;;;17.20;69.50;;;;;;5031805;28;20395;-77
2022/06/08 12:41:15;;;;;;;2.47;0.50;;;17.20;69.60;;;;;;5031610;28;20072;-78
2022/06/08 12:43:48;;;;;;;5.65;0.77;;;17.00;70.70;;;;;;5030277;28;20049;-75
2022/06/08 12:46:28;;;;;;;4.93;0.80;;;16.80;72.00;;;;;;5035051;28;20500;-71
2022/06/08 12:49:12;;;;;;;2.95;0.70;;;16.50;73.30;;;;;;5035121;28;20045;-74
2022/06/08 12:51:48;;;;;;;4.47;0.90;;;16.40;74.10;;;;;;5034859;28;20053;-75
2022/06/08 12:54:24;;;;;;;3.53;0.80;;;16.70;74.80;;;;;;5035043;28;20050;-76
2022/06/08 12:56:56;;;;;;;5.28;1.10;;;16.80;74.60;;;;;;5034926;28;20045;-76
2022/06/08 12:59:23;;;;;;;2.55;0.73;;;17.20;74.80;;;;;;5034972;28;20057;-76
2022/06/08 13:02:01;;;;;;;3.10;0.77;;;17.40;74.50;;;;;;5034852;28;20037;-77
2022/06/08 13:04:29;;;;;;;2.83;0.90;;;17.50;74.00;;;;;;5034794;28;20049;-77
2022/06/08 13:06:58;;;;;;;5.72;0.80;;;17.40;73.20;;;;;;5033383;28;20491;-77
2022/06/08 13:09:26;;;;;;;2.22;0.47;;;17.30;72.70;;;;;;5034676;28;20054;-77
2022/06/08 13:11:56;;;;;;;6.95;1.30;;;17.30;73.20;;;;;;5034620;28;20056;-78
2022/06/08 13:14:24;;;;;;;1.42;0.40;;;17.40;73.30;;;;;;5034596;28;20041;-78
2022/06/08 13:16:52;;;;;;;3.00;0.45;;;18.10;73.60;;;;;;5066141;28;20053;-77
2022/06/08 13:19:20;;;;;;;2.17;0.65;;;18.80;69.70;;;;;;5034355;28;20057;-78
2022/06/08 13:21:48;;;;;;;3.55;0.63;;;19.00;69.80;;;;;;5034362;28;20417;-78
2022/06/08 13:24:16;;;;;;;2.17;0.57;;;19.30;69.60;;;;;;5034452;28;20061;-78
2022/06/08 13:26:46;;;;;;;3.53;0.65;;;19.80;66.40;;;;;;5034511;28;20057;-78
2022/06/08 13:29:16;;;;;;;2.33;0.68;;;19.80;66.70;;;;;;5034588;28;20046;-78
2022/06/08 13:31:45;;;;;;;4.72;0.80;;;19.80;66.40;;;;;;5034115;28;20034;-78
2022/06/08 13:34:13;;;;;;;1.58;0.40;;;19.90;65.80;;;;;;5037096;28;20052;-78
2022/06/08 13:36:54;;;;;;;4.35;1.00;;;20.20;63.60;;;;;;5042982;28;20060;-78
2022/06/08 13:39:21;;;;;;;1.90;0.38;;;20.20;61.30;;;;;;5019126;28;20057;-78
2022/06/08 13:41:52;;;;;;;4.78;0.73;;;20.30;61.80;;;;;;5044133;28;20049;-78
2022/06/08 13:44:27;;;;;;;2.72;0.50;;;20.40;59.90;;;;;;5041118;28;20045;-78
2022/06/08 13:47:05;;;;;;;2.10;0.50;;;20.00;58.50;;;;;;5034000;28;20053;-78